OOCL Hamburg — VRZK9 — position and weather

sailwx.info

Track history (hours):
 
Tides and Currents Weather Stations Pressure Air Temp Water Temp Dewpoint Dewpoint Depression Visibility Wind Speed Wind Dir Waves Ship Positions

OOCL Hamburg

Last reported at 2015-Mar-27 15:33 UTC. Time now 2015-Mar-27 15:46 UTC.
Position N 40°40' W 074°05'.

Length 323 m; beam 42.8 m; draft 14.5 m.

Type: Cargo ship. MMSI: 477702000.

Date/timePositionNaut miles runAvg speedWind from/ knotsBaromVisibWave heightAir tempDewpointWater temp
2015-Mar-27 15:33N 40°40' W 074°05'0 0.0
2015-Mar-27 14:30N 40°40' W 074°05'0 0.0
2015-Mar-27 13:30N 40°40' W 074°05'0 0.0
2015-Mar-27 12:30N 40°40' W 074°05'0 0.0
2015-Mar-27 11:30N 40°40' W 074°05'0 0.0
2015-Mar-27 10:33N 40°40' W 074°05'0 0.0
2015-Mar-27 09:30N 40°40' W 074°05'0 0.0
2015-Mar-27 08:30N 40°40' W 074°05'0 0.0
2015-Mar-27 07:30N 40°40' W 074°05'0 0.0
2015-Mar-27 06:30N 40°40' W 074°05'0 0.0
2015-Mar-27 05:30N 40°40' W 074°05'0 0.0
2015-Mar-27 04:30N 40°40' W 074°05'0 0.0
2015-Mar-27 03:30N 40°40' W 074°05'0 0.0
2015-Mar-27 02:33N 40°40' W 074°05'0 0.0
2015-Mar-27 01:30N 40°40' W 074°05'0 0.0
2015-Mar-27 00:30N 40°40' W 074°05'0 0.0
2015-Mar-26 23:30N 40°40' W 074°05'0 0.0
2015-Mar-26 22:33N 40°40' W 074°05'0 0.0
2015-Mar-26 21:33N 40°40' W 074°05'0 0.0
2015-Mar-26 20:33N 40°40' W 074°05'0 0.0
2015-Mar-26 19:33N 40°40' W 074°05'0 0.0
2015-Mar-26 18:30N 40°40' W 074°05'0 0.0
2015-Mar-26 17:33N 40°40' W 074°05'0 0.0
2015-Mar-26 16:30N 40°40' W 074°05'0 0.2
2015-Mar-26 15:33N 40°40' W 074°04'9 8.8
2015-Mar-26 14:34N 40°32' W 074°01'1010.3
2015-Mar-26 13:33N 40°27' W 073°49'8 8.4
2015-Mar-26 12:33N 40°22' W 073°39'9 9.0
2015-Mar-26 11:34N 40°17' W 073°30'1716.0
2015-Mar-26 10:29N 40°07' W 073°12'4 4.2
2015-Mar-26 09:33N 40°07' W 073°07'1010.4
2015-Mar-26 08:33N 40°04' W 072°54'1514.0
2015-Mar-26 07:30N 40°01' W 072°35'1314.0
2015-Mar-26 06:33N 39°58' W 072°18'1413.9
2015-Mar-26 05:33N 39°55' W 072°01'1514.0
2015-Mar-26 04:28N 39°52' W 071°41'2613.6
2015-Mar-26 02:31N 39°50' W 071°07'1313.7
2015-Mar-26 01:33N 39°51' W 070°50'1413.9
2015-Mar-26 00:33N 39°51' W 070°31'1413.7
2015-Mar-25 23:33N 39°51' W 070°13'1413.8
2015-Mar-25 22:33N 39°52' W 069°56'1813.9
2015-Mar-25 21:18N 39°52' W 069°33'1714.4
2015-Mar-25 20:07N 39°52' W 069°11'  
2015-Mar-20 22:24N 39°58' W 029°51'1517.4
2015-Mar-20 21:33N 39°55' W 029°32'1817.8
2015-Mar-20 20:33N 39°50' W 029°10'1818.1
2015-Mar-20 19:33N 39°46' W 028°47'1818.2
2015-Mar-20 18:33N 39°41' W 028°24'1818.2
2015-Mar-20 17:33N 39°37' W 028°01'1818.5
2015-Mar-20 16:34N 39°33' W 027°38'2118.2
2015-Mar-20 15:23N 39°27' W 027°11'5418.4
2015-Mar-20 12:26N 39°14' W 026°03'  
2015-Mar-17 17:33N 36°36' W 000°48'1919.2
2015-Mar-17 16:34N 36°39' W 000°25'  
Track history (hours):
 
Tides and Currents Weather Stations Pressure Air Temp Water Temp Dewpoint Dewpoint Depression Visibility Wind Speed Wind Dir Waves Ship Positions

OOCL Hamburg

Last reported at 2015-Mar-27 15:33 UTC. Time now 2015-Mar-27 15:46 UTC.
Position N 40°40' W 074°05'.

Length 323 m; beam 42.8 m; draft 14.5 m.

Type: Cargo ship. MMSI: 477702000.

Date/timePositionNaut miles runAvg speedWind from/ knotsBaromVisibWave heightAir tempDewpointWater temp
2015-Mar-27 15:33N 40°40' W 074°05'0 0.0
2015-Mar-27 14:30N 40°40' W 074°05'0 0.0
2015-Mar-27 13:30N 40°40' W 074°05'0 0.0
2015-Mar-27 12:30N 40°40' W 074°05'0 0.0
2015-Mar-27 11:30N 40°40' W 074°05'0 0.0
2015-Mar-27 10:33N 40°40' W 074°05'0 0.0
2015-Mar-27 09:30N 40°40' W 074°05'0 0.0
2015-Mar-27 08:30N 40°40' W 074°05'0 0.0
2015-Mar-27 07:30N 40°40' W 074°05'0 0.0
2015-Mar-27 06:30N 40°40' W 074°05'0 0.0
2015-Mar-27 05:30N 40°40' W 074°05'0 0.0
2015-Mar-27 04:30N 40°40' W 074°05'0 0.0
2015-Mar-27 03:30N 40°40' W 074°05'0 0.0
2015-Mar-27 02:33N 40°40' W 074°05'0 0.0
2015-Mar-27 01:30N 40°40' W 074°05'0 0.0
2015-Mar-27 00:30N 40°40' W 074°05'0 0.0
2015-Mar-26 23:30N 40°40' W 074°05'0 0.0
2015-Mar-26 22:33N 40°40' W 074°05'0 0.0
2015-Mar-26 21:33N 40°40' W 074°05'0 0.0
2015-Mar-26 20:33N 40°40' W 074°05'0 0.0
2015-Mar-26 19:33N 40°40' W 074°05'0 0.0
2015-Mar-26 18:30N 40°40' W 074°05'0 0.0
2015-Mar-26 17:33N 40°40' W 074°05'0 0.0
2015-Mar-26 16:30N 40°40' W 074°05'0 0.2
2015-Mar-26 15:33N 40°40' W 074°04'9 8.8
2015-Mar-26 14:34N 40°32' W 074°01'1010.3
2015-Mar-26 13:33N 40°27' W 073°49'8 8.4
2015-Mar-26 12:33N 40°22' W 073°39'9 9.0
2015-Mar-26 11:34N 40°17' W 073°30'1716.0
2015-Mar-26 10:29N 40°07' W 073°12'4 4.2
2015-Mar-26 09:33N 40°07' W 073°07'1010.4
2015-Mar-26 08:33N 40°04' W 072°54'1514.0
2015-Mar-26 07:30N 40°01' W 072°35'1314.0
2015-Mar-26 06:33N 39°58' W 072°18'1413.9
2015-Mar-26 05:33N 39°55' W 072°01'1514.0
2015-Mar-26 04:28N 39°52' W 071°41'2613.6
2015-Mar-26 02:31N 39°50' W 071°07'1313.7
2015-Mar-26 01:33N 39°51' W 070°50'1413.9
2015-Mar-26 00:33N 39°51' W 070°31'1413.7
2015-Mar-25 23:33N 39°51' W 070°13'1413.8
2015-Mar-25 22:33N 39°52' W 069°56'1813.9
2015-Mar-25 21:18N 39°52' W 069°33'1714.4
2015-Mar-25 20:07N 39°52' W 069°11'  
2015-Mar-20 22:24N 39°58' W 029°51'1517.4
2015-Mar-20 21:33N 39°55' W 029°32'1817.8
2015-Mar-20 20:33N 39°50' W 029°10'1818.1
2015-Mar-20 19:33N 39°46' W 028°47'1818.2
2015-Mar-20 18:33N 39°41' W 028°24'1818.2
2015-Mar-20 17:33N 39°37' W 028°01'1818.5
2015-Mar-20 16:34N 39°33' W 027°38'2118.2
2015-Mar-20 15:23N 39°27' W 027°11'5418.4
2015-Mar-20 12:26N 39°14' W 026°03'  
2015-Mar-17 17:33N 36°36' W 000°48'1919.2
2015-Mar-17 16:34N 36°39' W 000°25'  

Dump ship's entire track history